sensor_id;sensor_type;location;lat;lon;timestamp;P1;durP1;ratioP1;P2;durP2;ratioP2
20593;SDS011;10455;48.732;10.266;2022-09-13T00:04:08;19.63;;;17.53;;
20593;SDS011;10455;48.732;10.266;2022-09-13T00:09:10;16.70;;;14.97;;
20593;SDS011;10455;48.732;10.266;2022-09-13T00:14:14;15.53;;;13.87;;
20593;SDS011;10455;48.732;10.266;2022-09-13T00:19:16;17.10;;;15.30;;
20593;SDS011;10455;48.732;10.266;2022-09-13T00:30:17;16.50;;;14.80;;
20593;SDS011;10455;48.732;10.266;2022-09-13T00:41:34;23.30;;;20.33;;
20593;SDS011;10455;48.732;10.266;2022-09-13T00:47:14;20.73;;;17.00;;
20593;SDS011;10455;48.732;10.266;2022-09-13T00:58:36;15.50;;;13.90;;
20593;SDS011;10455;48.732;10.266;2022-09-13T01:03:43;19.13;;;16.40;;
20593;SDS011;10455;48.732;10.266;2022-09-13T01:08:48;14.13;;;12.77;;
20593;SDS011;10455;48.732;10.266;2022-09-13T01:13:52;15.43;;;13.83;;
20593;SDS011;10455;48.732;10.266;2022-09-13T01:18:58;15.57;;;13.97;;
20593;SDS011;10455;48.732;10.266;2022-09-13T01:29:43;20.23;;;14.97;;
20593;SDS011;10455;48.732;10.266;2022-09-13T01:35:14;14.33;;;12.83;;
20593;SDS011;10455;48.732;10.266;2022-09-13T01:40:30;15.10;;;13.50;;
20593;SDS011;10455;48.732;10.266;2022-09-13T01:45:44;19.03;;;17.03;;
20593;SDS011;10455;48.732;10.266;2022-09-13T01:50:57;16.47;;;14.77;;
20593;SDS011;10455;48.732;10.266;2022-09-13T01:56:04;19.50;;;15.40;;
20593;SDS011;10455;48.732;10.266;2022-09-13T02:01:12;18.13;;;16.20;;
20593;SDS011;10455;48.732;10.266;2022-09-13T02:06:20;20.20;;;17.37;;
20593;SDS011;10455;48.732;10.266;2022-09-13T02:11:26;15.13;;;13.07;;
20593;SDS011;10455;48.732;10.266;2022-09-13T02:16:30;17.33;;;13.90;;
20593;SDS011;10455;48.732;10.266;2022-09-13T02:21:38;18.70;;;16.80;;
20593;SDS011;10455;48.732;10.266;2022-09-13T02:26:43;13.30;;;12.07;;
20593;SDS011;10455;48.732;10.266;2022-09-13T02:31:49;14.50;;;13.03;;
20593;SDS011;10455;48.732;10.266;2022-09-13T02:36:56;16.03;;;14.43;;
20593;SDS011;10455;48.732;10.266;2022-09-13T02:42:01;12.67;;;11.47;;
20593;SDS011;10455;48.732;10.266;2022-09-13T02:47:14;14.87;;;13.40;;
20593;SDS011;10455;48.732;10.266;2022-09-13T02:52:31;17.23;;;14.57;;
20593;SDS011;10455;48.732;10.266;2022-09-13T02:57:40;20.90;;;14.60;;
20593;SDS011;10455;48.732;10.266;2022-09-13T03:02:50;17.43;;;15.57;;
20593;SDS011;10455;48.732;10.266;2022-09-13T03:07:55;17.90;;;15.87;;
20593;SDS011;10455;48.732;10.266;2022-09-13T03:13:15;15.23;;;13.17;;
20593;SDS011;10455;48.732;10.266;2022-09-13T03:18:33;17.47;;;14.63;;
20593;SDS011;10455;48.732;10.266;2022-09-13T03:23:49;14.23;;;12.83;;
20593;SDS011;10455;48.732;10.266;2022-09-13T03:29:04;15.77;;;14.07;;
20593;SDS011;10455;48.732;10.266;2022-09-13T03:34:18;18.03;;;15.10;;
20593;SDS011;10455;48.732;10.266;2022-09-13T03:39:33;25.13;;;18.63;;
20593;SDS011;10455;48.732;10.266;2022-09-13T03:44:41;25.30;;;19.43;;
20593;SDS011;10455;48.732;10.266;2022-09-13T03:49:48;15.00;;;13.50;;
20593;SDS011;10455;48.732;10.266;2022-09-13T03:54:53;17.10;;;14.83;;
20593;SDS011;10455;48.732;10.266;2022-09-13T03:59:55;22.87;;;16.90;;
20593;SDS011;10455;48.732;10.266;2022-09-13T04:04:58;18.80;;;15.97;;
20593;SDS011;10455;48.732;10.266;2022-09-13T04:10:02;17.97;;;15.57;;
20593;SDS011;10455;48.732;10.266;2022-09-13T04:15:05;20.40;;;15.80;;
20593;SDS011;10455;48.732;10.266;2022-09-13T04:20:08;19.40;;;15.80;;
20593;SDS011;10455;48.732;10.266;2022-09-13T04:25:11;17.53;;;14.40;;
20593;SDS011;10455;48.732;10.266;2022-09-13T04:30:14;21.80;;;17.40;;
20593;SDS011;10455;48.732;10.266;2022-09-13T04:35:16;19.67;;;15.20;;
20593;SDS011;10455;48.732;10.266;2022-09-13T04:40:20;28.30;;;19.53;;
20593;SDS011;10455;48.732;10.266;2022-09-13T04:45:22;13.67;;;12.20;;
20593;SDS011;10455;48.732;10.266;2022-09-13T04:50:25;16.83;;;13.50;;
20593;SDS011;10455;48.732;10.266;2022-09-13T04:55:28;18.87;;;15.00;;
20593;SDS011;10455;48.732;10.266;2022-09-13T05:00:31;27.23;;;18.23;;
20593;SDS011;10455;48.732;10.266;2022-09-13T05:05:33;28.67;;;20.37;;
20593;SDS011;10455;48.732;10.266;2022-09-13T05:10:38;29.53;;;21.47;;
20593;SDS011;10455;48.732;10.266;2022-09-13T05:15:40;15.37;;;13.77;;
20593;SDS011;10455;48.732;10.266;2022-09-13T05:20:42;30.67;;;22.00;;
20593;SDS011;10455;48.732;10.266;2022-09-13T05:25:46;26.53;;;21.00;;
20593;SDS011;10455;48.732;10.266;2022-09-13T05:30:54;22.43;;;20.03;;
20593;SDS011;10455;48.732;10.266;2022-09-13T05:35:57;24.10;;;20.53;;
20593;SDS011;10455;48.732;10.266;2022-09-13T05:41:01;11.47;;;10.23;;
20593;SDS011;10455;48.732;10.266;2022-09-13T05:46:05;11.13;;;10.03;;
20593;SDS011;10455;48.732;10.266;2022-09-13T05:51:12;10.30;;;9.30;;
20593;SDS011;10455;48.732;10.266;2022-09-13T05:56:17;10.20;;;9.13;;
20593;SDS011;10455;48.732;10.266;2022-09-13T06:01:20;8.75;;;7.22;;
20593;SDS011;10455;48.732;10.266;2022-09-13T06:06:24;8.40;;;7.55;;
20593;SDS011;10455;48.732;10.266;2022-09-13T06:11:28;6.78;;;6.13;;
20593;SDS011;10455;48.732;10.266;2022-09-13T06:16:30;7.45;;;6.03;;
20593;SDS011;10455;48.732;10.266;2022-09-13T06:21:32;12.70;;;11.45;;
20593;SDS011;10455;48.732;10.266;2022-09-13T06:26:36;11.05;;;9.77;;
20593;SDS011;10455;48.732;10.266;2022-09-13T06:31:38;18.52;;;16.75;;
20593;SDS011;10455;48.732;10.266;2022-09-13T06:36:43;20.65;;;18.55;;
20593;SDS011;10455;48.732;10.266;2022-09-13T06:41:47;26.08;;;23.33;;
20593;SDS011;10455;48.732;10.266;2022-09-13T06:46:49;27.00;;;24.15;;
20593;SDS011;10455;48.732;10.266;2022-09-13T06:51:51;19.63;;;17.73;;
20593;SDS011;10455;48.732;10.266;2022-09-13T06:56:54;15.80;;;14.18;;
20593;SDS011;10455;48.732;10.266;2022-09-13T07:01:56;14.50;;;13.13;;
20593;SDS011;10455;48.732;10.266;2022-09-13T07:06:59;12.40;;;11.18;;
20593;SDS011;10455;48.732;10.266;2022-09-13T07:12:04;11.77;;;10.75;;
20593;SDS011;10455;48.732;10.266;2022-09-13T07:17:06;11.15;;;10.00;;
20593;SDS011;10455;48.732;10.266;2022-09-13T07:22:08;10.75;;;9.55;;
20593;SDS011;10455;48.732;10.266;2022-09-13T07:27:12;12.45;;;11.35;;
20593;SDS011;10455;48.732;10.266;2022-09-13T07:32:15;11.68;;;10.63;;
20593;SDS011;10455;48.732;10.266;2022-09-13T07:37:18;8.15;;;7.35;;
20593;SDS011;10455;48.732;10.266;2022-09-13T07:42:22;7.65;;;6.93;;
20593;SDS011;10455;48.732;10.266;2022-09-13T07:47:24;8.65;;;7.85;;
20593;SDS011;10455;48.732;10.266;2022-09-13T07:52:27;7.95;;;7.22;;
20593;SDS011;10455;48.732;10.266;2022-09-13T07:57:30;7.10;;;6.50;;
20593;SDS011;10455;48.732;10.266;2022-09-13T08:02:33;6.47;;;5.05;;
20593;SDS011;10455;48.732;10.266;2022-09-13T08:07:36;5.38;;;3.67;;
20593;SDS011;10455;48.732;10.266;2022-09-13T08:12:39;3.30;;;3.03;;
20593;SDS011;10455;48.732;10.266;2022-09-13T08:17:41;2.65;;;2.45;;
20593;SDS011;10455;48.732;10.266;2022-09-13T08:22:43;3.20;;;2.72;;
20593;SDS011;10455;48.732;10.266;2022-09-13T08:27:47;3.20;;;2.20;;
20593;SDS011;10455;48.732;10.266;2022-09-13T08:32:49;2.70;;;2.42;;
20593;SDS011;10455;48.732;10.266;2022-09-13T08:37:51;2.80;;;1.92;;
20593;SDS011;10455;48.732;10.266;2022-09-13T08:42:57;4.00;;;2.22;;
20593;SDS011;10455;48.732;10.266;2022-09-13T08:48:08;2.38;;;2.17;;
20593;SDS011;10455;48.732;10.266;2022-09-13T08:53:16;2.00;;;1.65;;
20593;SDS011;10455;48.732;10.266;2022-09-13T08:58:35;3.60;;;1.60;;
20593;SDS011;10455;48.732;10.266;2022-09-13T09:03:44;1.95;;;1.60;;
20593;SDS011;10455;48.732;10.266;2022-09-13T09:08:52;5.32;;;1.77;;
20593;SDS011;10455;48.732;10.266;2022-09-13T09:14:01;2.85;;;1.70;;
20593;SDS011;10455;48.732;10.266;2022-09-13T09:19:12;1.83;;;1.50;;
20593;SDS011;10455;48.732;10.266;2022-09-13T09:24:21;3.25;;;1.50;;
20593;SDS011;10455;48.732;10.266;2022-09-13T09:29:27;1.83;;;1.40;;
20593;SDS011;10455;48.732;10.266;2022-09-13T09:34:34;1.42;;;1.30;;
20593;SDS011;10455;48.732;10.266;2022-09-13T09:39:47;1.50;;;1.40;;
20593;SDS011;10455;48.732;10.266;2022-09-13T09:44:52;2.65;;;1.42;;
20593;SDS011;10455;48.732;10.266;2022-09-13T09:49:58;1.50;;;1.40;;
20593;SDS011;10455;48.732;10.266;2022-09-13T09:55:12;2.13;;;1.50;;
20593;SDS011;10455;48.732;10.266;2022-09-13T10:00:22;4.60;;;1.63;;
20593;SDS011;10455;48.732;10.266;2022-09-13T10:05:25;3.20;;;1.52;;
20593;SDS011;10455;48.732;10.266;2022-09-13T10:10:32;3.22;;;1.55;;
20593;SDS011;10455;48.732;10.266;2022-09-13T10:15:52;1.42;;;1.20;;
20593;SDS011;10455;48.732;10.266;2022-09-13T10:21:02;3.70;;;1.67;;
20593;SDS011;10455;48.732;10.266;2022-09-13T10:26:06;3.53;;;1.50;;
20593;SDS011;10455;48.732;10.266;2022-09-13T10:31:13;4.35;;;1.95;;
20593;SDS011;10455;48.732;10.266;2022-09-13T10:36:18;1.90;;;1.50;;
20593;SDS011;10455;48.732;10.266;2022-09-13T10:41:23;2.55;;;1.40;;
20593;SDS011;10455;48.732;10.266;2022-09-13T10:46:30;1.13;;;1.02;;
20593;SDS011;10455;48.732;10.266;2022-09-13T10:51:35;2.53;;;1.35;;
20593;SDS011;10455;48.732;10.266;2022-09-13T10:56:38;1.70;;;1.40;;
20593;SDS011;10455;48.732;10.266;2022-09-13T11:01:42;4.75;;;1.40;;
20593;SDS011;10455;48.732;10.266;2022-09-13T11:06:51;5.50;;;1.60;;
20593;SDS011;10455;48.732;10.266;2022-09-13T11:12:01;1.90;;;1.38;;
20593;SDS011;10455;48.732;10.266;2022-09-13T11:17:11;2.00;;;1.50;;
20593;SDS011;10455;48.732;10.266;2022-09-13T11:22:25;1.88;;;1.40;;
20593;SDS011;10455;48.732;10.266;2022-09-13T11:27:38;1.50;;;1.40;;
20593;SDS011;10455;48.732;10.266;2022-09-13T11:33:02;1.55;;;1.40;;
20593;SDS011;10455;48.732;10.266;2022-09-13T11:38:30;3.08;;;1.65;;
20593;SDS011;10455;48.732;10.266;2022-09-13T11:43:51;2.22;;;1.70;;
20593;SDS011;10455;48.732;10.266;2022-09-13T11:54:38;1.55;;;1.45;;
20593;SDS011;10455;48.732;10.266;2022-09-13T11:59:50;3.53;;;1.48;;
20593;SDS011;10455;48.732;10.266;2022-09-13T12:05:00;3.15;;;1.48;;
20593;SDS011;10455;48.732;10.266;2022-09-13T12:10:12;1.52;;;1.35;;
20593;SDS011;10455;48.732;10.266;2022-09-13T12:15:18;2.25;;;1.40;;
20593;SDS011;10455;48.732;10.266;2022-09-13T12:20:29;2.03;;;1.30;;
20593;SDS011;10455;48.732;10.266;2022-09-13T12:25:37;2.42;;;1.60;;
20593;SDS011;10455;48.732;10.266;2022-09-13T12:30:45;1.55;;;1.40;;
20593;SDS011;10455;48.732;10.266;2022-09-13T12:36:12;3.28;;;1.50;;
20593;SDS011;10455;48.732;10.266;2022-09-13T12:41:34;1.50;;;1.30;;
20593;SDS011;10455;48.732;10.266;2022-09-13T12:46:54;2.30;;;1.20;;
20593;SDS011;10455;48.732;10.266;2022-09-13T12:52:15;1.40;;;1.30;;
20593;SDS011;10455;48.732;10.266;2022-09-13T12:57:29;2.00;;;1.30;;
20593;SDS011;10455;48.732;10.266;2022-09-13T13:02:40;2.00;;;1.40;;
20593;SDS011;10455;48.732;10.266;2022-09-13T13:07:50;1.65;;;1.35;;
20593;SDS011;10455;48.732;10.266;2022-09-13T13:12:54;3.17;;;1.48;;
20593;SDS011;10455;48.732;10.266;2022-09-13T13:17:57;2.55;;;1.20;;
20593;SDS011;10455;48.732;10.266;2022-09-13T13:23:26;1.75;;;1.27;;
20593;SDS011;10455;48.732;10.266;2022-09-13T13:34:28;2.22;;;1.38;;
20593;SDS011;10455;48.732;10.266;2022-09-13T13:39:36;1.98;;;1.40;;
20593;SDS011;10455;48.732;10.266;2022-09-13T13:50:24;1.65;;;1.52;;
20593;SDS011;10455;48.732;10.266;2022-09-13T13:55:37;2.45;;;1.35;;
20593;SDS011;10455;48.732;10.266;2022-09-13T14:00:45;2.47;;;1.42;;
20593;SDS011;10455;48.732;10.266;2022-09-13T14:05:50;1.27;;;1.17;;
20593;SDS011;10455;48.732;10.266;2022-09-13T14:11:00;1.30;;;1.20;;
20593;SDS011;10455;48.732;10.266;2022-09-13T14:16:12;1.30;;;1.20;;
20593;SDS011;10455;48.732;10.266;2022-09-13T14:21:26;1.95;;;1.58;;
20593;SDS011;10455;48.732;10.266;2022-09-13T14:26:30;1.52;;;1.30;;
20593;SDS011;10455;48.732;10.266;2022-09-13T14:31:32;1.58;;;1.15;;
20593;SDS011;10455;48.732;10.266;2022-09-13T14:36:34;2.58;;;1.50;;
20593;SDS011;10455;48.732;10.266;2022-09-13T14:41:38;2.55;;;1.50;;
20593;SDS011;10455;48.732;10.266;2022-09-13T14:46:40;1.30;;;1.20;;
20593;SDS011;10455;48.732;10.266;2022-09-13T14:51:46;2.53;;;1.30;;
20593;SDS011;10455;48.732;10.266;2022-09-13T14:56:54;2.30;;;1.40;;
20593;SDS011;10455;48.732;10.266;2022-09-13T15:02:04;2.30;;;1.25;;
20593;SDS011;10455;48.732;10.266;2022-09-13T15:07:08;1.35;;;1.25;;
20593;SDS011;10455;48.732;10.266;2022-09-13T15:12:23;2.05;;;1.50;;
20593;SDS011;10455;48.732;10.266;2022-09-13T15:17:27;3.00;;;1.50;;
20593;SDS011;10455;48.732;10.266;2022-09-13T15:22:29;3.72;;;1.90;;
20593;SDS011;10455;48.732;10.266;2022-09-13T15:27:43;3.00;;;1.92;;
20593;SDS011;10455;48.732;10.266;2022-09-13T15:32:47;3.53;;;1.38;;
20593;SDS011;10455;48.732;10.266;2022-09-13T15:37:57;2.17;;;1.50;;
20593;SDS011;10455;48.732;10.266;2022-09-13T15:43:01;2.45;;;1.40;;
20593;SDS011;10455;48.732;10.266;2022-09-13T15:48:04;1.40;;;1.30;;
20593;SDS011;10455;48.732;10.266;2022-09-13T15:53:08;3.05;;;1.20;;
20593;SDS011;10455;48.732;10.266;2022-09-13T15:58:14;1.45;;;1.13;;
20593;SDS011;10455;48.732;10.266;2022-09-13T16:03:16;1.58;;;1.17;;
20593;SDS011;10455;48.732;10.266;2022-09-13T16:08:18;2.17;;;1.33;;
20593;SDS011;10455;48.732;10.266;2022-09-13T16:13:21;2.35;;;1.13;;
20593;SDS011;10455;48.732;10.266;2022-09-13T16:18:23;2.20;;;1.45;;
20593;SDS011;10455;48.732;10.266;2022-09-13T16:23:26;1.70;;;1.38;;
20593;SDS011;10455;48.732;10.266;2022-09-13T16:28:29;1.33;;;1.23;;
20593;SDS011;10455;48.732;10.266;2022-09-13T16:33:31;5.13;;;1.40;;
20593;SDS011;10455;48.732;10.266;2022-09-13T16:38:33;1.35;;;1.20;;
20593;SDS011;10455;48.732;10.266;2022-09-13T16:43:37;1.77;;;1.30;;
20593;SDS011;10455;48.732;10.266;2022-09-13T16:48:39;1.38;;;1.27;;
20593;SDS011;10455;48.732;10.266;2022-09-13T16:53:41;2.17;;;1.45;;
20593;SDS011;10455;48.732;10.266;2022-09-13T16:58:45;2.65;;;1.50;;
20593;SDS011;10455;48.732;10.266;2022-09-13T17:03:49;1.75;;;1.40;;
20593;SDS011;10455;48.732;10.266;2022-09-13T17:08:52;2.92;;;1.40;;
20593;SDS011;10455;48.732;10.266;2022-09-13T17:13:57;2.60;;;1.50;;
20593;SDS011;10455;48.732;10.266;2022-09-13T17:19:00;2.15;;;1.58;;
20593;SDS011;10455;48.732;10.266;2022-09-13T17:24:04;1.83;;;1.58;;
20593;SDS011;10455;48.732;10.266;2022-09-13T17:29:09;2.33;;;1.50;;
20593;SDS011;10455;48.732;10.266;2022-09-13T17:34:12;2.53;;;1.75;;
20593;SDS011;10455;48.732;10.266;2022-09-13T17:39:14;2.65;;;1.73;;
20593;SDS011;10455;48.732;10.266;2022-09-13T17:44:18;2.47;;;1.67;;
20593;SDS011;10455;48.732;10.266;2022-09-13T17:49:20;4.60;;;2.00;;
20593;SDS011;10455;48.732;10.266;2022-09-13T17:54:22;3.55;;;1.80;;
20593;SDS011;10455;48.732;10.266;2022-09-13T17:59:26;2.58;;;1.77;;
20593;SDS011;10455;48.732;10.266;2022-09-13T18:04:29;3.33;;;1.80;;
20593;SDS011;10455;48.732;10.266;2022-09-13T18:09:31;4.97;;;3.17;;
20593;SDS011;10455;48.732;10.266;2022-09-13T18:14:36;5.25;;;2.72;;
20593;SDS011;10455;48.732;10.266;2022-09-13T18:19:38;2.08;;;1.88;;
20593;SDS011;10455;48.732;10.266;2022-09-13T18:24:41;2.58;;;2.20;;
20593;SDS011;10455;48.732;10.266;2022-09-13T18:29:45;3.80;;;1.98;;
20593;SDS011;10455;48.732;10.266;2022-09-13T18:34:47;3.88;;;2.03;;
20593;SDS011;10455;48.732;10.266;2022-09-13T18:39:49;2.17;;;1.98;;
20593;SDS011;10455;48.732;10.266;2022-09-13T18:44:53;3.58;;;2.08;;
20593;SDS011;10455;48.732;10.266;2022-09-13T18:49:55;2.10;;;2.00;;
20593;SDS011;10455;48.732;10.266;2022-09-13T18:54:57;3.15;;;2.20;;
20593;SDS011;10455;48.732;10.266;2022-09-13T19:00:00;4.72;;;2.13;;
20593;SDS011;10455;48.732;10.266;2022-09-13T19:05:04;5.78;;;2.08;;
20593;SDS011;10455;48.732;10.266;2022-09-13T19:10:07;2.38;;;2.17;;
20593;SDS011;10455;48.732;10.266;2022-09-13T19:15:10;3.45;;;2.13;;
20593;SDS011;10455;48.732;10.266;2022-09-13T19:20:13;3.67;;;2.38;;
20593;SDS011;10455;48.732;10.266;2022-09-13T19:25:15;3.72;;;2.33;;
20593;SDS011;10455;48.732;10.266;2022-09-13T19:30:19;4.43;;;2.25;;
20593;SDS011;10455;48.732;10.266;2022-09-13T19:35:21;3.45;;;2.35;;
20593;SDS011;10455;48.732;10.266;2022-09-13T19:40:24;2.47;;;2.25;;
20593;SDS011;10455;48.732;10.266;2022-09-13T19:45:27;4.32;;;2.22;;
20593;SDS011;10455;48.732;10.266;2022-09-13T19:50:29;2.60;;;2.40;;
20593;SDS011;10455;48.732;10.266;2022-09-13T19:55:31;2.60;;;2.05;;
20593;SDS011;10455;48.732;10.266;2022-09-13T20:00:35;2.78;;;2.20;;
20593;SDS011;10455;48.732;10.266;2022-09-13T20:05:38;5.28;;;2.75;;
20593;SDS011;10455;48.732;10.266;2022-09-13T20:10:40;2.80;;;2.50;;
20593;SDS011;10455;48.732;10.266;2022-09-13T20:15:43;2.45;;;2.25;;
20593;SDS011;10455;48.732;10.266;2022-09-13T20:20:45;2.95;;;2.58;;
20593;SDS011;10455;48.732;10.266;2022-09-13T20:25:49;3.78;;;2.85;;
20593;SDS011;10455;48.732;10.266;2022-09-13T20:30:53;3.13;;;2.92;;
20593;SDS011;10455;48.732;10.266;2022-09-13T20:35:55;3.35;;;2.50;;
20593;SDS011;10455;48.732;10.266;2022-09-13T20:41:00;2.97;;;2.78;;
20593;SDS011;10455;48.732;10.266;2022-09-13T20:46:06;4.07;;;3.45;;
20593;SDS011;10455;48.732;10.266;2022-09-13T20:51:12;4.25;;;3.30;;
20593;SDS011;10455;48.732;10.266;2022-09-13T20:56:16;3.63;;;2.83;;
20593;SDS011;10455;48.732;10.266;2022-09-13T21:01:21;3.30;;;3.00;;
20593;SDS011;10455;48.732;10.266;2022-09-13T21:06:24;3.90;;;3.10;;
20593;SDS011;10455;48.732;10.266;2022-09-13T21:11:28;3.80;;;2.95;;
20593;SDS011;10455;48.732;10.266;2022-09-13T21:16:34;4.82;;;3.00;;
20593;SDS011;10455;48.732;10.266;2022-09-13T21:21:38;3.22;;;2.92;;
20593;SDS011;10455;48.732;10.266;2022-09-13T21:26:42;3.50;;;3.20;;
20593;SDS011;10455;48.732;10.266;2022-09-13T21:31:45;6.70;;;3.33;;
20593;SDS011;10455;48.732;10.266;2022-09-13T21:36:47;3.40;;;3.10;;
20593;SDS011;10455;48.732;10.266;2022-09-13T21:41:49;3.60;;;3.30;;
20593;SDS011;10455;48.732;10.266;2022-09-13T21:46:53;3.78;;;3.47;;
20593;SDS011;10455;48.732;10.266;2022-09-13T21:51:55;3.92;;;3.47;;
20593;SDS011;10455;48.732;10.266;2022-09-13T21:56:57;3.40;;;3.00;;
20593;SDS011;10455;48.732;10.266;2022-09-13T22:02:00;3.88;;;3.00;;
20593;SDS011;10455;48.732;10.266;2022-09-13T22:07:03;3.15;;;2.85;;
20593;SDS011;10455;48.732;10.266;2022-09-13T22:12:05;3.35;;;2.92;;
20593;SDS011;10455;48.732;10.266;2022-09-13T22:17:09;3.70;;;3.35;;
20593;SDS011;10455;48.732;10.266;2022-09-13T22:22:11;4.75;;;3.35;;
20593;SDS011;10455;48.732;10.266;2022-09-13T22:27:13;3.88;;;3.15;;
20593;SDS011;10455;48.732;10.266;2022-09-13T22:32:16;4.28;;;3.50;;
20593;SDS011;10455;48.732;10.266;2022-09-13T22:37:18;4.15;;;3.85;;
20593;SDS011;10455;48.732;10.266;2022-09-13T22:42:20;6.65;;;4.13;;
20593;SDS011;10455;48.732;10.266;2022-09-13T22:47:25;4.95;;;4.20;;
20593;SDS011;10455;48.732;10.266;2022-09-13T22:52:28;5.05;;;3.90;;
20593;SDS011;10455;48.732;10.266;2022-09-13T22:57:31;5.93;;;4.10;;
20593;SDS011;10455;48.732;10.266;2022-09-13T23:02:34;4.65;;;3.90;;
20593;SDS011;10455;48.732;10.266;2022-09-13T23:07:36;5.80;;;3.78;;
20593;SDS011;10455;48.732;10.266;2022-09-13T23:12:38;5.30;;;3.58;;
20593;SDS011;10455;48.732;10.266;2022-09-13T23:17:42;5.57;;;3.78;;
20593;SDS011;10455;48.732;10.266;2022-09-13T23:22:44;6.32;;;3.75;;
20593;SDS011;10455;48.732;10.266;2022-09-13T23:27:46;6.90;;;3.63;;
20593;SDS011;10455;48.732;10.266;2022-09-13T23:32:50;4.00;;;3.70;;
20593;SDS011;10455;48.732;10.266;2022-09-13T23:37:52;5.18;;;3.50;;
20593;SDS011;10455;48.732;10.266;2022-09-13T23:42:54;3.70;;;3.40;;
20593;SDS011;10455;48.732;10.266;2022-09-13T23:47:58;5.05;;;3.75;;
20593;SDS011;10455;48.732;10.266;2022-09-13T23:53:00;3.95;;;3.60;;
20593;SDS011;10455;48.732;10.266;2022-09-13T23:58:02;6.15;;;3.78;;
